sensor_id;sensor_type;location;lat;lon;timestamp;temperature;humidity
983;DHT22;480;48.124;11.578;2022-07-01T00:01:45;20.10;99.90
983;DHT22;480;48.124;11.578;2022-07-01T00:04:13;20.10;99.90
983;DHT22;480;48.124;11.578;2022-07-01T00:06:40;20.10;99.90
983;DHT22;480;48.124;11.578;2022-07-01T00:09:07;20.10;99.90
983;DHT22;480;48.124;11.578;2022-07-01T00:11:34;20.10;99.90
983;DHT22;480;48.124;11.578;2022-07-01T00:14:01;19.90;99.90
983;DHT22;480;48.124;11.578;2022-07-01T00:16:28;19.90;99.90
983;DHT22;480;48.124;11.578;2022-07-01T00:18:57;19.90;99.90
983;DHT22;480;48.124;11.578;2022-07-01T00:21:24;19.90;99.90
983;DHT22;480;48.124;11.578;2022-07-01T00:23:51;20.00;99.90
983;DHT22;480;48.124;11.578;2022-07-01T00:26:18;20.00;99.90
983;DHT22;480;48.124;11.578;2022-07-01T00:28:45;20.00;99.90
983;DHT22;480;48.124;11.578;2022-07-01T00:31:12;20.00;99.90
983;DHT22;480;48.124;11.578;2022-07-01T00:33:39;20.00;99.90
983;DHT22;480;48.124;11.578;2022-07-01T00:36:07;20.00;99.90
983;DHT22;480;48.124;11.578;2022-07-01T00:38:34;20.00;99.90
983;DHT22;480;48.124;11.578;2022-07-01T00:41:01;20.00;99.90
983;DHT22;480;48.124;11.578;2022-07-01T00:43:34;20.00;99.90
983;DHT22;480;48.124;11.578;2022-07-01T00:46:02;20.00;99.90
983;DHT22;480;48.124;11.578;2022-07-01T00:48:30;19.90;99.90
983;DHT22;480;48.124;11.578;2022-07-01T00:50:58;19.90;99.90
983;DHT22;480;48.124;11.578;2022-07-01T00:53:28;19.90;99.90
983;DHT22;480;48.124;11.578;2022-07-01T00:55:55;19.90;99.90
983;DHT22;480;48.124;11.578;2022-07-01T00:58:22;19.90;99.90
983;DHT22;480;48.124;11.578;2022-07-01T01:00:49;19.90;99.90
983;DHT22;480;48.124;11.578;2022-07-01T01:03:16;19.80;99.90
983;DHT22;480;48.124;11.578;2022-07-01T01:05:43;19.80;99.90
983;DHT22;480;48.124;11.578;2022-07-01T01:08:10;19.80;99.90
983;DHT22;480;48.124;11.578;2022-07-01T01:10:39;19.70;99.90
983;DHT22;480;48.124;11.578;2022-07-01T01:13:09;19.70;99.90
983;DHT22;480;48.124;11.578;2022-07-01T01:15:38;19.70;99.90
983;DHT22;480;48.124;11.578;2022-07-01T01:18:05;19.70;99.90
983;DHT22;480;48.124;11.578;2022-07-01T01:20:34;19.60;99.90
983;DHT22;480;48.124;11.578;2022-07-01T01:23:02;19.60;99.90
983;DHT22;480;48.124;11.578;2022-07-01T01:25:30;19.60;99.90
983;DHT22;480;48.124;11.578;2022-07-01T01:27:57;19.60;99.90
983;DHT22;480;48.124;11.578;2022-07-01T01:30:24;19.60;99.90
983;DHT22;480;48.124;11.578;2022-07-01T01:32:51;19.60;99.90
983;DHT22;480;48.124;11.578;2022-07-01T01:35:18;19.60;99.90
983;DHT22;480;48.124;11.578;2022-07-01T01:37:47;19.60;99.90
983;DHT22;480;48.124;11.578;2022-07-01T01:40:14;19.60;99.90
983;DHT22;480;48.124;11.578;2022-07-01T01:42:42;19.50;99.90
983;DHT22;480;48.124;11.578;2022-07-01T01:45:10;19.50;99.90
983;DHT22;480;48.124;11.578;2022-07-01T01:47:37;19.50;99.90
983;DHT22;480;48.124;11.578;2022-07-01T01:50:06;19.50;99.90
983;DHT22;480;48.124;11.578;2022-07-01T01:52:33;19.50;99.90
983;DHT22;480;48.124;11.578;2022-07-01T01:55:01;19.40;99.90
983;DHT22;480;48.124;11.578;2022-07-01T01:57:28;19.50;99.90
983;DHT22;480;48.124;11.578;2022-07-01T01:59:55;19.40;99.90
983;DHT22;480;48.124;11.578;2022-07-01T02:02:23;19.30;99.90
983;DHT22;480;48.124;11.578;2022-07-01T02:04:50;19.30;99.90
983;DHT22;480;48.124;11.578;2022-07-01T02:07:17;19.20;99.90
983;DHT22;480;48.124;11.578;2022-07-01T02:09:44;19.20;99.90
983;DHT22;480;48.124;11.578;2022-07-01T02:12:12;19.20;99.90
983;DHT22;480;48.124;11.578;2022-07-01T02:14:39;19.20;99.90
983;DHT22;480;48.124;11.578;2022-07-01T02:17:06;19.20;99.90
983;DHT22;480;48.124;11.578;2022-07-01T02:19:33;19.20;99.90
983;DHT22;480;48.124;11.578;2022-07-01T02:22:00;19.20;99.90
983;DHT22;480;48.124;11.578;2022-07-01T02:24:27;19.20;99.90
983;DHT22;480;48.124;11.578;2022-07-01T02:26:54;19.10;99.90
983;DHT22;480;48.124;11.578;2022-07-01T02:29:23;19.10;99.90
983;DHT22;480;48.124;11.578;2022-07-01T02:31:50;19.10;99.90
983;DHT22;480;48.124;11.578;2022-07-01T02:34:17;19.20;99.90
983;DHT22;480;48.124;11.578;2022-07-01T02:36:44;19.20;99.90
983;DHT22;480;48.124;11.578;2022-07-01T02:39:11;19.10;99.90
983;DHT22;480;48.124;11.578;2022-07-01T02:41:38;19.10;99.90
983;DHT22;480;48.124;11.578;2022-07-01T02:44:18;19.10;99.90
983;DHT22;480;48.124;11.578;2022-07-01T02:46:47;19.10;99.90
983;DHT22;480;48.124;11.578;2022-07-01T02:49:14;19.10;99.90
983;DHT22;480;48.124;11.578;2022-07-01T02:51:41;19.20;99.90
983;DHT22;480;48.124;11.578;2022-07-01T02:54:09;19.30;99.90
983;DHT22;480;48.124;11.578;2022-07-01T02:56:35;19.30;99.90
983;DHT22;480;48.124;11.578;2022-07-01T02:59:02;19.40;99.90
983;DHT22;480;48.124;11.578;2022-07-01T03:01:30;19.30;99.90
983;DHT22;480;48.124;11.578;2022-07-01T03:03:58;19.40;99.90
983;DHT22;480;48.124;11.578;2022-07-01T03:06:25;19.50;99.90
983;DHT22;480;48.124;11.578;2022-07-01T03:08:52;19.50;99.90
983;DHT22;480;48.124;11.578;2022-07-01T03:11:19;19.50;99.90
983;DHT22;480;48.124;11.578;2022-07-01T03:13:46;19.50;99.90
983;DHT22;480;48.124;11.578;2022-07-01T03:16:13;19.40;99.90
983;DHT22;480;48.124;11.578;2022-07-01T03:18:40;19.40;99.90
983;DHT22;480;48.124;11.578;2022-07-01T03:21:09;19.40;99.90
983;DHT22;480;48.124;11.578;2022-07-01T03:23:36;19.40;99.90
983;DHT22;480;48.124;11.578;2022-07-01T03:26:03;19.40;99.90
983;DHT22;480;48.124;11.578;2022-07-01T03:28:30;19.40;99.90
983;DHT22;480;48.124;11.578;2022-07-01T03:30:57;19.50;99.90
983;DHT22;480;48.124;11.578;2022-07-01T03:33:24;19.50;99.90
983;DHT22;480;48.124;11.578;2022-07-01T03:35:51;19.40;99.90
983;DHT22;480;48.124;11.578;2022-07-01T03:38:19;19.50;99.90
983;DHT22;480;48.124;11.578;2022-07-01T03:40:46;19.60;99.90
983;DHT22;480;48.124;11.578;2022-07-01T03:43:13;19.60;99.90
983;DHT22;480;48.124;11.578;2022-07-01T03:45:40;19.60;99.90
983;DHT22;480;48.124;11.578;2022-07-01T03:48:07;19.40;99.90
983;DHT22;480;48.124;11.578;2022-07-01T03:50:34;19.40;99.90
983;DHT22;480;48.124;11.578;2022-07-01T03:53:01;19.50;99.90
983;DHT22;480;48.124;11.578;2022-07-01T03:55:47;19.50;99.90
983;DHT22;480;48.124;11.578;2022-07-01T03:58:14;19.60;99.90
983;DHT22;480;48.124;11.578;2022-07-01T04:00:41;19.80;99.90
983;DHT22;480;48.124;11.578;2022-07-01T04:03:08;19.90;99.90
983;DHT22;480;48.124;11.578;2022-07-01T04:05:37;20.00;99.90
983;DHT22;480;48.124;11.578;2022-07-01T04:08:06;20.00;99.90
983;DHT22;480;48.124;11.578;2022-07-01T04:10:37;20.00;99.90
983;DHT22;480;48.124;11.578;2022-07-01T04:13:07;20.00;99.90
983;DHT22;480;48.124;11.578;2022-07-01T04:15:34;20.00;99.90
983;DHT22;480;48.124;11.578;2022-07-01T04:18:01;19.90;99.90
983;DHT22;480;48.124;11.578;2022-07-01T04:20:28;20.00;99.90
983;DHT22;480;48.124;11.578;2022-07-01T04:22:55;19.90;99.90
983;DHT22;480;48.124;11.578;2022-07-01T04:25:21;20.10;99.90
983;DHT22;480;48.124;11.578;2022-07-01T04:27:48;20.10;99.90
983;DHT22;480;48.124;11.578;2022-07-01T04:30:17;20.00;99.90
983;DHT22;480;48.124;11.578;2022-07-01T04:32:44;20.10;99.90
983;DHT22;480;48.124;11.578;2022-07-01T04:35:11;19.90;99.90
983;DHT22;480;48.124;11.578;2022-07-01T04:37:39;19.90;99.90
983;DHT22;480;48.124;11.578;2022-07-01T04:40:07;19.90;99.90
983;DHT22;480;48.124;11.578;2022-07-01T04:42:34;19.90;99.90
983;DHT22;480;48.124;11.578;2022-07-01T04:45:01;20.00;99.90
983;DHT22;480;48.124;11.578;2022-07-01T04:47:30;20.00;99.90
983;DHT22;480;48.124;11.578;2022-07-01T04:49:58;20.00;99.90
983;DHT22;480;48.124;11.578;2022-07-01T04:52:27;19.90;99.90
983;DHT22;480;48.124;11.578;2022-07-01T04:54:54;19.80;99.90
983;DHT22;480;48.124;11.578;2022-07-01T04:57:21;19.80;99.90
983;DHT22;480;48.124;11.578;2022-07-01T04:59:48;19.90;99.90
983;DHT22;480;48.124;11.578;2022-07-01T05:02:15;19.90;99.90
983;DHT22;480;48.124;11.578;2022-07-01T05:04:43;20.00;99.90
983;DHT22;480;48.124;11.578;2022-07-01T05:07:10;20.20;99.90
983;DHT22;480;48.124;11.578;2022-07-01T05:09:54;20.30;99.90
983;DHT22;480;48.124;11.578;2022-07-01T05:12:21;20.30;99.90
983;DHT22;480;48.124;11.578;2022-07-01T05:14:48;20.40;99.90
983;DHT22;480;48.124;11.578;2022-07-01T05:17:15;20.50;99.90
983;DHT22;480;48.124;11.578;2022-07-01T05:19:44;20.50;99.90
983;DHT22;480;48.124;11.578;2022-07-01T05:22:28;20.20;99.90
983;DHT22;480;48.124;11.578;2022-07-01T05:24:55;20.30;99.90
983;DHT22;480;48.124;11.578;2022-07-01T05:27:22;20.40;99.90
983;DHT22;480;48.124;11.578;2022-07-01T05:29:50;20.30;99.90
983;DHT22;480;48.124;11.578;2022-07-01T05:32:17;20.50;99.90
983;DHT22;480;48.124;11.578;2022-07-01T05:34:46;20.70;99.90
983;DHT22;480;48.124;11.578;2022-07-01T05:37:13;20.70;99.90
983;DHT22;480;48.124;11.578;2022-07-01T05:39:42;20.70;99.90
983;DHT22;480;48.124;11.578;2022-07-01T05:42:09;20.80;99.90
983;DHT22;480;48.124;11.578;2022-07-01T05:44:36;20.90;99.90
983;DHT22;480;48.124;11.578;2022-07-01T05:47:03;20.90;99.90
983;DHT22;480;48.124;11.578;2022-07-01T05:49:30;20.80;99.90
983;DHT22;480;48.124;11.578;2022-07-01T05:51:59;20.70;99.90
983;DHT22;480;48.124;11.578;2022-07-01T05:54:26;20.50;99.90
983;DHT22;480;48.124;11.578;2022-07-01T05:56:53;20.40;99.90
983;DHT22;480;48.124;11.578;2022-07-01T05:59:20;20.40;99.90
983;DHT22;480;48.124;11.578;2022-07-01T06:01:47;20.30;99.90
983;DHT22;480;48.124;11.578;2022-07-01T06:04:16;20.20;99.90
983;DHT22;480;48.124;11.578;2022-07-01T06:06:43;20.10;99.90
983;DHT22;480;48.124;11.578;2022-07-01T06:09:11;20.10;99.90
983;DHT22;480;48.124;11.578;2022-07-01T06:11:39;20.10;99.90
983;DHT22;480;48.124;11.578;2022-07-01T06:14:06;20.10;99.90
983;DHT22;480;48.124;11.578;2022-07-01T06:16:33;20.20;99.90
983;DHT22;480;48.124;11.578;2022-07-01T06:19:00;20.30;99.90
983;DHT22;480;48.124;11.578;2022-07-01T06:21:27;20.50;99.90
983;DHT22;480;48.124;11.578;2022-07-01T06:23:54;20.80;99.90
983;DHT22;480;48.124;11.578;2022-07-01T06:26:22;20.90;99.90
983;DHT22;480;48.124;11.578;2022-07-01T06:28:49;20.80;99.90
983;DHT22;480;48.124;11.578;2022-07-01T06:31:17;20.70;99.90
983;DHT22;480;48.124;11.578;2022-07-01T06:33:44;20.60;99.90
983;DHT22;480;48.124;11.578;2022-07-01T06:36:11;20.50;99.90
983;DHT22;480;48.124;11.578;2022-07-01T06:38:40;20.40;99.90
983;DHT22;480;48.124;11.578;2022-07-01T06:41:06;20.30;99.90
983;DHT22;480;48.124;11.578;2022-07-01T06:43:52;20.20;99.90
983;DHT22;480;48.124;11.578;2022-07-01T06:46:20;20.20;99.90
983;DHT22;480;48.124;11.578;2022-07-01T06:48:47;20.20;99.90
983;DHT22;480;48.124;11.578;2022-07-01T06:51:14;20.20;99.90
983;DHT22;480;48.124;11.578;2022-07-01T06:53:42;20.10;99.90
983;DHT22;480;48.124;11.578;2022-07-01T06:56:10;20.10;99.90
983;DHT22;480;48.124;11.578;2022-07-01T06:58:37;20.20;99.90
983;DHT22;480;48.124;11.578;2022-07-01T07:01:06;20.20;99.90
983;DHT22;480;48.124;11.578;2022-07-01T07:03:33;20.10;99.90
983;DHT22;480;48.124;11.578;2022-07-01T07:06:00;20.10;99.90
983;DHT22;480;48.124;11.578;2022-07-01T07:08:27;20.10;99.90
983;DHT22;480;48.124;11.578;2022-07-01T07:10:54;20.10;99.90
983;DHT22;480;48.124;11.578;2022-07-01T07:13:21;20.10;99.90
983;DHT22;480;48.124;11.578;2022-07-01T07:15:49;20.20;99.90
983;DHT22;480;48.124;11.578;2022-07-01T07:18:17;20.30;99.90
983;DHT22;480;48.124;11.578;2022-07-01T07:20:45;20.30;99.90
983;DHT22;480;48.124;11.578;2022-07-01T07:23:13;20.40;99.90
983;DHT22;480;48.124;11.578;2022-07-01T07:25:40;20.40;99.90
983;DHT22;480;48.124;11.578;2022-07-01T07:28:07;20.40;99.90
983;DHT22;480;48.124;11.578;2022-07-01T07:30:34;20.40;99.90
983;DHT22;480;48.124;11.578;2022-07-01T07:33:01;20.40;99.90
983;DHT22;480;48.124;11.578;2022-07-01T07:35:30;20.50;99.90
983;DHT22;480;48.124;11.578;2022-07-01T07:37:57;20.50;99.90
983;DHT22;480;48.124;11.578;2022-07-01T07:40:24;20.50;99.90
983;DHT22;480;48.124;11.578;2022-07-01T07:42:51;20.50;99.90
983;DHT22;480;48.124;11.578;2022-07-01T07:45:19;20.30;99.90
983;DHT22;480;48.124;11.578;2022-07-01T07:47:48;20.20;99.90
983;DHT22;480;48.124;11.578;2022-07-01T07:50:15;20.20;99.90
983;DHT22;480;48.124;11.578;2022-07-01T07:53:03;20.00;99.90
983;DHT22;480;48.124;11.578;2022-07-01T07:55:34;19.90;99.90
983;DHT22;480;48.124;11.578;2022-07-01T07:58:12;19.90;99.90
983;DHT22;480;48.124;11.578;2022-07-01T08:00:40;19.80;99.90
983;DHT22;480;48.124;11.578;2022-07-01T08:03:07;19.60;99.90
983;DHT22;480;48.124;11.578;2022-07-01T08:05:38;19.50;99.90
983;DHT22;480;48.124;11.578;2022-07-01T08:08:14;19.50;99.90
983;DHT22;480;48.124;11.578;2022-07-01T08:10:41;19.30;99.90
983;DHT22;480;48.124;11.578;2022-07-01T08:13:08;19.20;99.90
983;DHT22;480;48.124;11.578;2022-07-01T08:15:36;19.00;99.90
983;DHT22;480;48.124;11.578;2022-07-01T08:18:04;18.80;99.90
983;DHT22;480;48.124;11.578;2022-07-01T08:20:31;18.60;99.90
983;DHT22;480;48.124;11.578;2022-07-01T08:22:59;18.30;99.90
983;DHT22;480;48.124;11.578;2022-07-01T08:25:27;18.10;99.90
983;DHT22;480;48.124;11.578;2022-07-01T08:27:54;17.90;99.90
983;DHT22;480;48.124;11.578;2022-07-01T08:30:26;17.60;99.90
983;DHT22;480;48.124;11.578;2022-07-01T08:33:03;17.20;99.90
983;DHT22;480;48.124;11.578;2022-07-01T08:35:30;16.90;99.90
983;DHT22;480;48.124;11.578;2022-07-01T08:37:57;16.70;99.90
983;DHT22;480;48.124;11.578;2022-07-01T08:40:27;16.40;99.90
983;DHT22;480;48.124;11.578;2022-07-01T08:42:58;16.10;99.90
983;DHT22;480;48.124;11.578;2022-07-01T08:45:26;15.90;99.90
983;DHT22;480;48.124;11.578;2022-07-01T08:47:55;15.80;99.90
983;DHT22;480;48.124;11.578;2022-07-01T08:50:23;15.80;99.90
983;DHT22;480;48.124;11.578;2022-07-01T08:52:51;15.70;99.90
983;DHT22;480;48.124;11.578;2022-07-01T08:55:19;15.70;99.90
983;DHT22;480;48.124;11.578;2022-07-01T08:57:48;15.80;99.90
983;DHT22;480;48.124;11.578;2022-07-01T09:00:16;15.80;99.90
983;DHT22;480;48.124;11.578;2022-07-01T09:02:50;15.70;99.90
983;DHT22;480;48.124;11.578;2022-07-01T09:05:17;15.70;99.90
983;DHT22;480;48.124;11.578;2022-07-01T09:07:44;15.70;99.90
983;DHT22;480;48.124;11.578;2022-07-01T09:10:13;15.70;99.90
983;DHT22;480;48.124;11.578;2022-07-01T09:12:43;15.70;99.90
983;DHT22;480;48.124;11.578;2022-07-01T09:15:26;15.70;99.90
983;DHT22;480;48.124;11.578;2022-07-01T09:17:54;15.80;99.90
983;DHT22;480;48.124;11.578;2022-07-01T09:20:29;15.90;99.90
983;DHT22;480;48.124;11.578;2022-07-01T09:23:02;16.00;99.90
983;DHT22;480;48.124;11.578;2022-07-01T09:25:32;15.90;99.90
983;DHT22;480;48.124;11.578;2022-07-01T09:28:04;15.90;99.90
983;DHT22;480;48.124;11.578;2022-07-01T09:30:33;15.90;99.90
983;DHT22;480;48.124;11.578;2022-07-01T09:33:07;15.80;99.90
983;DHT22;480;48.124;11.578;2022-07-01T09:35:35;15.70;99.90
983;DHT22;480;48.124;11.578;2022-07-01T09:38:02;15.90;99.90
983;DHT22;480;48.124;11.578;2022-07-01T09:40:45;15.90;99.90
983;DHT22;480;48.124;11.578;2022-07-01T09:43:15;15.90;99.90
983;DHT22;480;48.124;11.578;2022-07-01T09:45:57;15.80;99.90
983;DHT22;480;48.124;11.578;2022-07-01T09:48:26;15.70;99.90
983;DHT22;480;48.124;11.578;2022-07-01T09:50:54;15.90;99.90
983;DHT22;480;48.124;11.578;2022-07-01T09:53:21;16.00;99.90
983;DHT22;480;48.124;11.578;2022-07-01T09:55:48;16.00;99.90
983;DHT22;480;48.124;11.578;2022-07-01T09:58:16;16.10;99.90
983;DHT22;480;48.124;11.578;2022-07-01T10:00:43;16.10;99.90
983;DHT22;480;48.124;11.578;2022-07-01T10:03:12;16.10;99.90
983;DHT22;480;48.124;11.578;2022-07-01T10:05:44;16.20;99.90
983;DHT22;480;48.124;11.578;2022-07-01T10:08:26;16.10;99.90
983;DHT22;480;48.124;11.578;2022-07-01T10:11:06;16.00;99.90
983;DHT22;480;48.124;11.578;2022-07-01T10:13:41;15.90;99.90
983;DHT22;480;48.124;11.578;2022-07-01T10:16:09;16.00;99.90
983;DHT22;480;48.124;11.578;2022-07-01T10:18:38;16.10;99.90
983;DHT22;480;48.124;11.578;2022-07-01T10:21:05;16.10;99.90
983;DHT22;480;48.124;11.578;2022-07-01T10:23:38;16.00;99.90
983;DHT22;480;48.124;11.578;2022-07-01T10:26:06;16.10;99.90
983;DHT22;480;48.124;11.578;2022-07-01T10:28:42;16.20;99.90
983;DHT22;480;48.124;11.578;2022-07-01T10:31:13;16.30;99.90
983;DHT22;480;48.124;11.578;2022-07-01T10:33:45;16.20;99.90
983;DHT22;480;48.124;11.578;2022-07-01T10:36:16;16.20;99.90
983;DHT22;480;48.124;11.578;2022-07-01T10:42:00;16.20;99.90
983;DHT22;480;48.124;11.578;2022-07-01T10:44:29;16.40;99.90
983;DHT22;480;48.124;11.578;2022-07-01T10:47:03;16.50;99.90
983;DHT22;480;48.124;11.578;2022-07-01T10:53:00;16.50;99.90
983;DHT22;480;48.124;11.578;2022-07-01T10:55:38;16.40;99.90
983;DHT22;480;48.124;11.578;2022-07-01T10:58:06;16.40;99.90
983;DHT22;480;48.124;11.578;2022-07-01T11:00:34;16.30;99.90
983;DHT22;480;48.124;11.578;2022-07-01T11:03:13;16.30;99.90
983;DHT22;480;48.124;11.578;2022-07-01T11:05:42;16.30;99.90
983;DHT22;480;48.124;11.578;2022-07-01T11:08:10;16.30;99.90
983;DHT22;480;48.124;11.578;2022-07-01T11:10:39;16.30;99.90
983;DHT22;480;48.124;11.578;2022-07-01T11:13:07;16.40;99.90
983;DHT22;480;48.124;11.578;2022-07-01T11:15:35;16.40;99.90
983;DHT22;480;48.124;11.578;2022-07-01T11:18:02;16.40;99.90
983;DHT22;480;48.124;11.578;2022-07-01T11:20:31;16.40;99.90
983;DHT22;480;48.124;11.578;2022-07-01T11:22:59;16.50;99.90
983;DHT22;480;48.124;11.578;2022-07-01T11:25:27;16.60;99.90
983;DHT22;480;48.124;11.578;2022-07-01T11:27:56;16.60;99.90
983;DHT22;480;48.124;11.578;2022-07-01T11:30:23;16.70;99.90
983;DHT22;480;48.124;11.578;2022-07-01T11:32:52;16.70;99.90
983;DHT22;480;48.124;11.578;2022-07-01T11:35:21;16.70;99.90
983;DHT22;480;48.124;11.578;2022-07-01T11:38:08;16.60;99.90
983;DHT22;480;48.124;11.578;2022-07-01T11:41:01;16.60;99.90
983;DHT22;480;48.124;11.578;2022-07-01T11:43:32;16.60;99.90
983;DHT22;480;48.124;11.578;2022-07-01T11:46:02;16.60;99.90
983;DHT22;480;48.124;11.578;2022-07-01T11:48:31;16.70;99.90
983;DHT22;480;48.124;11.578;2022-07-01T11:50:59;16.70;99.90
983;DHT22;480;48.124;11.578;2022-07-01T11:53:27;16.60;99.90
983;DHT22;480;48.124;11.578;2022-07-01T11:55:54;16.60;99.90
983;DHT22;480;48.124;11.578;2022-07-01T11:58:22;16.70;99.90
983;DHT22;480;48.124;11.578;2022-07-01T12:00:50;16.70;99.90
983;DHT22;480;48.124;11.578;2022-07-01T12:03:30;16.70;99.90
983;DHT22;480;48.124;11.578;2022-07-01T12:05:57;16.60;99.90
983;DHT22;480;48.124;11.578;2022-07-01T12:08:25;16.40;99.90
983;DHT22;480;48.124;11.578;2022-07-01T12:10:53;16.40;99.90
983;DHT22;480;48.124;11.578;2022-07-01T12:13:22;16.60;99.90
983;DHT22;480;48.124;11.578;2022-07-01T12:15:49;16.70;99.90
983;DHT22;480;48.124;11.578;2022-07-01T12:18:16;16.80;99.90
983;DHT22;480;48.124;11.578;2022-07-01T12:20:48;16.90;99.90
983;DHT22;480;48.124;11.578;2022-07-01T12:23:16;16.90;99.90
983;DHT22;480;48.124;11.578;2022-07-01T12:25:47;16.80;99.90
983;DHT22;480;48.124;11.578;2022-07-01T12:28:26;16.70;99.90
983;DHT22;480;48.124;11.578;2022-07-01T12:31:01;16.60;99.90
983;DHT22;480;48.124;11.578;2022-07-01T12:33:29;16.50;99.90
983;DHT22;480;48.124;11.578;2022-07-01T12:35:56;16.40;99.90
983;DHT22;480;48.124;11.578;2022-07-01T12:38:23;16.50;99.90
983;DHT22;480;48.124;11.578;2022-07-01T12:40:50;16.60;99.90
983;DHT22;480;48.124;11.578;2022-07-01T12:43:27;16.60;99.90
983;DHT22;480;48.124;11.578;2022-07-01T12:46:01;16.50;99.90
983;DHT22;480;48.124;11.578;2022-07-01T12:48:28;16.40;99.90
983;DHT22;480;48.124;11.578;2022-07-01T12:50:57;16.40;99.90
983;DHT22;480;48.124;11.578;2022-07-01T12:53:25;16.30;99.90
983;DHT22;480;48.124;11.578;2022-07-01T12:55:54;16.20;99.90
983;DHT22;480;48.124;11.578;2022-07-01T12:58:22;16.10;99.90
983;DHT22;480;48.124;11.578;2022-07-01T13:00:53;16.00;99.90
983;DHT22;480;48.124;11.578;2022-07-01T13:03:21;15.90;99.90
983;DHT22;480;48.124;11.578;2022-07-01T13:05:49;16.00;99.90
983;DHT22;480;48.124;11.578;2022-07-01T13:08:17;16.00;99.90
983;DHT22;480;48.124;11.578;2022-07-01T13:10:44;15.90;99.90
983;DHT22;480;48.124;11.578;2022-07-01T13:13:12;16.00;99.90
983;DHT22;480;48.124;11.578;2022-07-01T13:15:40;16.10;99.90
983;DHT22;480;48.124;11.578;2022-07-01T13:18:09;16.10;99.90
983;DHT22;480;48.124;11.578;2022-07-01T13:20:36;16.10;99.90
983;DHT22;480;48.124;11.578;2022-07-01T13:23:04;16.20;99.90
983;DHT22;480;48.124;11.578;2022-07-01T13:25:31;16.20;99.90
983;DHT22;480;48.124;11.578;2022-07-01T13:27:58;16.40;99.90
983;DHT22;480;48.124;11.578;2022-07-01T13:30:25;16.40;99.90
983;DHT22;480;48.124;11.578;2022-07-01T13:32:52;16.40;99.90
983;DHT22;480;48.124;11.578;2022-07-01T13:35:22;16.40;99.90
983;DHT22;480;48.124;11.578;2022-07-01T13:37:50;16.30;99.90
983;DHT22;480;48.124;11.578;2022-07-01T13:40:17;16.30;99.90
983;DHT22;480;48.124;11.578;2022-07-01T13:42:44;16.40;99.90
983;DHT22;480;48.124;11.578;2022-07-01T13:45:11;16.40;99.90
983;DHT22;480;48.124;11.578;2022-07-01T13:47:39;16.50;99.90
983;DHT22;480;48.124;11.578;2022-07-01T13:50:08;16.50;99.90
983;DHT22;480;48.124;11.578;2022-07-01T13:52:37;16.50;99.90
983;DHT22;480;48.124;11.578;2022-07-01T13:55:05;16.50;99.90
983;DHT22;480;48.124;11.578;2022-07-01T13:57:32;16.40;99.90
983;DHT22;480;48.124;11.578;2022-07-01T13:59:59;16.30;99.90
983;DHT22;480;48.124;11.578;2022-07-01T14:02:26;16.40;99.90
983;DHT22;480;48.124;11.578;2022-07-01T14:04:53;16.40;99.90
983;DHT22;480;48.124;11.578;2022-07-01T14:07:20;16.40;99.90
983;DHT22;480;48.124;11.578;2022-07-01T14:09:48;16.30;99.90
983;DHT22;480;48.124;11.578;2022-07-01T14:12:15;16.30;99.90
983;DHT22;480;48.124;11.578;2022-07-01T14:14:42;16.30;99.90
983;DHT22;480;48.124;11.578;2022-07-01T14:17:10;16.40;99.90
983;DHT22;480;48.124;11.578;2022-07-01T14:19:37;16.30;99.90
983;DHT22;480;48.124;11.578;2022-07-01T14:22:04;16.40;99.90
983;DHT22;480;48.124;11.578;2022-07-01T14:24:31;16.40;99.90
983;DHT22;480;48.124;11.578;2022-07-01T14:27:00;16.40;99.90
983;DHT22;480;48.124;11.578;2022-07-01T14:29:27;16.50;99.90
983;DHT22;480;48.124;11.578;2022-07-01T14:31:55;16.50;99.90
983;DHT22;480;48.124;11.578;2022-07-01T14:34:22;16.60;99.90
983;DHT22;480;48.124;11.578;2022-07-01T14:36:49;16.50;99.90
983;DHT22;480;48.124;11.578;2022-07-01T14:39:16;16.50;99.90
983;DHT22;480;48.124;11.578;2022-07-01T14:41:43;16.40;99.90
983;DHT22;480;48.124;11.578;2022-07-01T14:44:16;16.40;99.90
983;DHT22;480;48.124;11.578;2022-07-01T14:46:43;16.50;99.90
983;DHT22;480;48.124;11.578;2022-07-01T14:49:10;16.40;99.90
983;DHT22;480;48.124;11.578;2022-07-01T14:51:37;16.30;99.90
983;DHT22;480;48.124;11.578;2022-07-01T14:54:04;16.50;99.90
983;DHT22;480;48.124;11.578;2022-07-01T14:56:31;16.50;99.90
983;DHT22;480;48.124;11.578;2022-07-01T14:58:58;16.50;99.90
983;DHT22;480;48.124;11.578;2022-07-01T15:01:27;16.60;99.90
983;DHT22;480;48.124;11.578;2022-07-01T15:03:54;16.70;99.90
983;DHT22;480;48.124;11.578;2022-07-01T15:06:21;16.70;99.90
983;DHT22;480;48.124;11.578;2022-07-01T15:08:48;16.60;99.90
983;DHT22;480;48.124;11.578;2022-07-01T15:11:15;16.60;99.90
983;DHT22;480;48.124;11.578;2022-07-01T15:13:43;16.70;99.90
983;DHT22;480;48.124;11.578;2022-07-01T15:16:10;16.90;99.90
983;DHT22;480;48.124;11.578;2022-07-01T15:18:38;16.90;99.90
983;DHT22;480;48.124;11.578;2022-07-01T15:21:05;16.80;99.90
983;DHT22;480;48.124;11.578;2022-07-01T15:23:32;16.70;99.90
983;DHT22;480;48.124;11.578;2022-07-01T15:25:59;16.60;99.90
983;DHT22;480;48.124;11.578;2022-07-01T15:28:26;16.70;99.90
983;DHT22;480;48.124;11.578;2022-07-01T15:30:53;16.80;99.90
983;DHT22;480;48.124;11.578;2022-07-01T15:33:20;16.90;99.90
983;DHT22;480;48.124;11.578;2022-07-01T15:35:48;17.00;99.90
983;DHT22;480;48.124;11.578;2022-07-01T15:38:15;17.10;99.90
983;DHT22;480;48.124;11.578;2022-07-01T15:40:42;17.20;99.90
983;DHT22;480;48.124;11.578;2022-07-01T15:43:09;17.20;99.90
983;DHT22;480;48.124;11.578;2022-07-01T15:45:39;17.20;99.90
983;DHT22;480;48.124;11.578;2022-07-01T15:48:07;17.20;99.90
983;DHT22;480;48.124;11.578;2022-07-01T15:50:36;17.00;99.90
983;DHT22;480;48.124;11.578;2022-07-01T15:53:05;17.10;99.90
983;DHT22;480;48.124;11.578;2022-07-01T15:55:32;17.10;99.90
983;DHT22;480;48.124;11.578;2022-07-01T15:57:59;17.20;99.90
983;DHT22;480;48.124;11.578;2022-07-01T16:00:27;17.20;99.90
983;DHT22;480;48.124;11.578;2022-07-01T16:02:57;17.10;99.90
983;DHT22;480;48.124;11.578;2022-07-01T16:05:24;17.10;99.90
983;DHT22;480;48.124;11.578;2022-07-01T16:07:57;17.10;99.90
983;DHT22;480;48.124;11.578;2022-07-01T16:10:41;17.00;99.90
983;DHT22;480;48.124;11.578;2022-07-01T16:13:11;17.00;99.90
983;DHT22;480;48.124;11.578;2022-07-01T16:15:39;17.20;99.90
983;DHT22;480;48.124;11.578;2022-07-01T16:18:08;17.20;99.90
983;DHT22;480;48.124;11.578;2022-07-01T16:20:38;17.10;99.90
983;DHT22;480;48.124;11.578;2022-07-01T16:23:08;17.10;99.90
983;DHT22;480;48.124;11.578;2022-07-01T16:25:40;17.10;99.90
983;DHT22;480;48.124;11.578;2022-07-01T16:28:08;17.30;99.90
983;DHT22;480;48.124;11.578;2022-07-01T16:30:37;17.40;99.90
983;DHT22;480;48.124;11.578;2022-07-01T16:33:04;17.40;99.90